createdAt,value
2023-02-08T00:01:28.014Z,57.31
2023-02-08T00:03:56.712Z,58.69
2023-02-08T00:06:25.256Z,59.56
2023-02-08T00:08:53.696Z,60.34
2023-02-08T00:11:22.165Z,61.19
2023-02-08T00:13:50.604Z,61.35
2023-02-08T00:16:19.648Z,61.80
2023-02-08T00:18:48.210Z,62.51
2023-02-08T00:21:18.497Z,63.83
2023-02-08T00:23:47.379Z,62.09
2023-02-08T00:26:16.435Z,59.94
2023-02-08T00:28:45.355Z,58.07
2023-02-08T00:31:14.051Z,58.36
2023-02-08T00:33:42.909Z,59.13
2023-02-08T00:36:11.988Z,59.84
2023-02-08T00:38:43.668Z,60.49
2023-02-08T00:41:12.485Z,61.38
2023-02-08T00:43:41.253Z,62.54
2023-02-08T00:46:11.173Z,63.47
2023-02-08T00:48:39.629Z,62.14
2023-02-08T00:51:13.751Z,60.24
2023-02-08T00:53:45.069Z,57.76
2023-02-08T00:56:15.429Z,57.41
2023-02-08T00:58:43.920Z,58.95
2023-02-08T01:01:13.792Z,59.88
2023-02-08T01:03:43.801Z,60.04
2023-02-08T01:06:18.304Z,60.71
2023-02-08T01:08:47.336Z,61.84
2023-02-08T01:11:25.298Z,63.18
2023-02-08T01:13:57.543Z,62.13
2023-02-08T01:16:32.108Z,60.75
2023-02-08T01:19:03.660Z,58.73
2023-02-08T01:21:35.448Z,57.64
2023-02-08T01:24:05.543Z,58.37
2023-02-08T01:26:35.105Z,59.54
2023-02-08T01:29:04.659Z,60.13
2023-02-08T01:31:36.568Z,61.55
2023-02-08T01:34:06.120Z,61.73
2023-02-08T01:36:35.607Z,62.66
2023-02-08T01:39:06.172Z,63.78
2023-02-08T01:41:38.475Z,62.43
2023-02-08T01:44:12.754Z,60.25
2023-02-08T01:46:43.865Z,58.45
2023-02-08T01:49:20.868Z,57.84
2023-02-08T01:52:01.860Z,58.86
2023-02-08T01:54:38.645Z,59.85
2023-02-08T01:57:08.134Z,60.75
2023-02-08T01:59:46.120Z,61.30
2023-02-08T02:02:17.910Z,62.75
2023-02-08T02:04:49.018Z,63.34
2023-02-08T02:07:19.687Z,61.65
2023-02-08T02:09:55.291Z,59.67
2023-02-08T02:12:25.047Z,57.83
2023-02-08T02:14:54.224Z,58.09
2023-02-08T02:17:23.032Z,59.29
2023-02-08T02:20:15.920Z,60.18
2023-02-08T02:23:09.255Z,60.88
2023-02-08T02:25:59.364Z,61.77
2023-02-08T02:29:02.916Z,63.08
2023-02-08T02:31:56.038Z,62.65
2023-02-08T02:35:00.157Z,60.46
2023-02-08T02:37:53.558Z,57.33
2023-02-08T02:40:40.052Z,57.67
2023-02-08T02:43:35.076Z,58.70
2023-02-08T02:46:07.731Z,59.93
2023-02-08T02:48:48.529Z,60.62
2023-02-08T02:51:16.926Z,61.39
2023-02-08T02:53:59.481Z,62.07
2023-02-08T02:56:38.336Z,63.61
2023-02-08T02:59:10.480Z,62.44
2023-02-08T03:01:40.617Z,60.34
2023-02-08T03:04:34.481Z,57.95
2023-02-08T03:07:14.884Z,57.32
2023-02-08T03:10:05.352Z,58.45
2023-02-08T03:12:58.917Z,59.51
2023-02-08T03:15:30.320Z,60.52
2023-02-08T03:18:09.613Z,62.06
2023-02-08T03:20:43.451Z,62.77
2023-02-08T03:23:22.002Z,62.46
2023-02-08T03:26:16.330Z,60.46
2023-02-08T03:28:58.947Z,57.91
2023-02-08T03:31:38.464Z,57.90
2023-02-08T03:34:41.803Z,58.75
2023-02-08T03:37:22.538Z,59.62
2023-02-08T03:39:56.523Z,60.60
2023-02-08T03:42:28.326Z,61.08
2023-02-08T03:45:02.835Z,61.85
2023-02-08T03:47:37.670Z,63.28
2023-02-08T03:50:11.902Z,63.60
2023-02-08T03:52:40.814Z,61.60
2023-02-08T03:55:14.594Z,59.41
2023-02-08T03:57:56.978Z,57.85
2023-02-08T04:00:25.942Z,58.82
2023-02-08T04:03:03.184Z,59.67
2023-02-08T04:05:31.944Z,60.21
2023-02-08T04:08:00.967Z,61.18
2023-02-08T04:10:29.572Z,61.56
2023-02-08T04:12:58.051Z,62.43
2023-02-08T04:15:27.654Z,63.56
2023-02-08T04:17:56.178Z,62.25
2023-02-08T04:20:24.626Z,60.00
2023-02-08T04:22:53.113Z,58.07
2023-02-08T04:25:21.669Z,58.42
2023-02-08T04:27:50.198Z,59.36
2023-02-08T04:30:18.656Z,60.16
2023-02-08T04:32:47.185Z,61.00
2023-02-08T04:35:15.803Z,61.70
2023-02-08T04:37:44.303Z,62.58
2023-02-08T04:40:12.891Z,63.65
2023-02-08T04:42:41.294Z,62.52
2023-02-08T04:45:10.802Z,60.46
2023-02-08T04:47:39.303Z,58.42
2023-02-08T04:50:07.910Z,58.10
2023-02-08T04:52:36.484Z,59.30
2023-02-08T04:55:05.282Z,60.33
2023-02-08T04:57:33.988Z,61.04
2023-02-08T05:00:02.700Z,61.53
2023-02-08T05:02:31.292Z,62.62
2023-02-08T05:04:59.832Z,63.34
2023-02-08T05:07:28.372Z,61.66
2023-02-08T05:09:56.881Z,59.45
2023-02-08T05:12:25.491Z,58.01
2023-02-08T05:14:53.895Z,58.76
2023-02-08T05:17:22.391Z,59.84
2023-02-08T05:19:50.911Z,61.47
2023-02-08T05:22:19.418Z,61.69
2023-02-08T05:24:47.842Z,62.34
2023-02-08T05:27:16.298Z,63.40
2023-02-08T05:29:44.829Z,62.84
2023-02-08T05:32:13.432Z,61.01
2023-02-08T05:34:41.890Z,59.00
2023-02-08T05:37:10.577Z,57.14
2023-02-08T05:39:39.064Z,57.81
2023-02-08T05:42:07.549Z,58.66
2023-02-08T05:44:36.153Z,59.67
2023-02-08T05:47:04.766Z,60.36
2023-02-08T05:49:33.359Z,60.79
2023-02-08T05:52:01.812Z,61.54
2023-02-08T05:54:30.265Z,62.04
2023-02-08T05:56:58.644Z,62.96
2023-02-08T05:59:27.186Z,64.41
2023-02-08T06:01:55.763Z,63.30
2023-02-08T06:04:24.377Z,60.94
2023-02-08T06:06:52.853Z,58.23
2023-02-08T06:09:21.311Z,57.58
2023-02-08T06:11:50.224Z,58.43
2023-02-08T06:14:18.810Z,59.02
2023-02-08T06:16:47.309Z,59.61
2023-02-08T06:19:15.770Z,60.36
2023-02-08T06:21:44.410Z,60.99
2023-02-08T06:24:13.985Z,61.48
2023-02-08T06:26:44.337Z,62.25
2023-02-08T06:29:12.812Z,63.95
2023-02-08T06:31:41.419Z,62.84
2023-02-08T06:34:10.249Z,59.87
2023-02-08T06:36:38.684Z,57.96
2023-02-08T06:39:07.104Z,58.43
2023-02-08T06:41:36.105Z,59.60
2023-02-08T06:44:04.621Z,60.10
2023-02-08T06:46:33.017Z,61.29
2023-02-08T06:49:01.455Z,62.08
2023-02-08T06:51:29.930Z,63.10
2023-02-08T06:53:58.466Z,62.30
2023-02-08T06:56:26.929Z,60.34
2023-02-08T06:58:57.058Z,57.87
2023-02-08T07:01:25.880Z,57.63
2023-02-08T07:03:54.360Z,58.69
2023-02-08T07:06:23.104Z,59.39
2023-02-08T07:08:51.639Z,60.38
2023-02-08T07:11:21.555Z,60.57
2023-02-08T07:13:51.763Z,61.26
2023-02-08T07:16:21.107Z,61.89
2023-02-08T07:18:49.601Z,62.66
2023-02-08T07:21:18.074Z,63.52
2023-02-08T07:23:46.709Z,61.19
2023-02-08T07:26:15.467Z,58.62
2023-02-08T07:28:44.328Z,57.31
2023-02-08T07:31:16.625Z,57.76
2023-02-08T07:33:45.374Z,58.54
2023-02-08T07:36:13.966Z,59.61
2023-02-08T07:38:42.528Z,59.78
2023-02-08T07:41:13.582Z,60.50
2023-02-08T07:43:43.184Z,60.36
2023-02-08T07:46:18.363Z,60.88
2023-02-08T07:48:49.473Z,61.91
2023-02-08T07:51:17.996Z,62.95
2023-02-08T07:53:46.832Z,62.26
2023-02-08T07:56:15.573Z,59.50
2023-02-08T07:58:44.262Z,57.75
2023-02-08T08:01:21.950Z,57.17
2023-02-08T08:03:52.806Z,57.68
2023-02-08T08:06:23.276Z,58.81
2023-02-08T08:08:52.144Z,59.04
2023-02-08T08:11:21.744Z,59.04
2023-02-08T08:13:51.249Z,60.07
2023-02-08T08:16:20.855Z,59.27
2023-02-08T08:18:49.535Z,59.55
2023-02-08T08:21:18.063Z,59.32
2023-02-08T08:23:47.576Z,59.47
2023-02-08T08:26:18.982Z,59.70
2023-02-08T08:28:48.377Z,61.15
2023-02-08T08:31:20.365Z,60.93
2023-02-08T08:33:49.885Z,60.68
2023-02-08T08:36:18.800Z,61.76
2023-02-08T08:38:47.310Z,61.89
2023-02-08T08:41:18.291Z,60.06
2023-02-08T08:43:49.187Z,56.65
2023-02-08T08:46:18.142Z,55.85
2023-02-08T08:48:47.109Z,56.82
2023-02-08T08:51:15.658Z,57.18
2023-02-08T08:53:44.252Z,58.23
2023-02-08T08:56:12.837Z,57.82
2023-02-08T08:58:41.549Z,57.16
2023-02-08T09:01:10.021Z,57.93
2023-02-08T09:03:38.547Z,57.67
2023-02-08T09:06:07.108Z,57.96
2023-02-08T09:08:35.551Z,58.62
2023-02-08T09:11:08.081Z,59.21
2023-02-08T09:13:37.387Z,58.21
2023-02-08T09:16:11.449Z,57.03
2023-02-08T09:18:40.526Z,56.77
2023-02-08T09:21:15.989Z,57.77
2023-02-08T09:23:47.699Z,56.72
2023-02-08T09:26:18.249Z,56.31
2023-02-08T09:28:47.051Z,56.83
2023-02-08T09:31:21.507Z,55.94
2023-02-08T09:33:52.292Z,55.82
2023-02-08T09:36:23.242Z,56.24
2023-02-08T09:39:00.536Z,56.84
2023-02-08T09:42:02.396Z,56.73
2023-02-08T09:44:46.104Z,57.54
2023-02-08T09:47:20.407Z,57.68
2023-02-08T09:50:02.529Z,58.17
2023-02-08T09:52:48.538Z,56.95
2023-02-08T09:55:32.568Z,56.06
2023-02-08T09:58:08.497Z,57.61
2023-02-08T10:00:42.725Z,57.56
2023-02-08T10:03:28.546Z,56.70
2023-02-08T10:05:57.365Z,55.79
2023-02-08T10:08:35.007Z,56.02
2023-02-08T10:11:09.829Z,56.21
2023-02-08T10:13:42.609Z,54.92
2023-02-08T10:16:44.161Z,55.86
2023-02-08T10:19:21.783Z,55.98
2023-02-08T10:22:15.920Z,56.06
2023-02-08T10:25:19.662Z,57.42
2023-02-08T10:28:04.811Z,57.07
2023-02-08T10:30:50.285Z,56.00
2023-02-08T10:34:02.307Z,56.56
2023-02-08T10:36:42.676Z,55.57
2023-02-08T10:39:24.882Z,56.79
2023-02-08T10:41:53.532Z,54.48
2023-02-08T10:44:36.365Z,55.03
2023-02-08T10:47:17.345Z,53.85
2023-02-08T10:49:58.982Z,55.63
2023-02-08T10:52:27.846Z,54.71
2023-02-08T10:54:59.673Z,55.15
2023-02-08T10:57:34.225Z,54.76
2023-02-08T11:00:07.509Z,53.56
2023-02-08T11:02:41.514Z,54.82
2023-02-08T11:05:18.450Z,54.19
2023-02-08T11:07:47.310Z,54.12
2023-02-08T11:10:18.662Z,54.02
2023-02-08T11:13:05.894Z,52.51
2023-02-08T11:15:47.110Z,51.55
2023-02-08T11:18:33.379Z,51.92
2023-02-08T11:21:21.763Z,50.89
2023-02-08T11:23:55.785Z,52.16
2023-02-08T11:26:37.658Z,52.11
2023-02-08T11:29:15.193Z,48.69
2023-02-08T11:32:02.986Z,51.03
2023-02-08T11:34:39.035Z,49.89
2023-02-08T11:37:21.251Z,50.49
2023-02-08T11:39:55.521Z,48.01
2023-02-08T11:42:31.496Z,48.45
2023-02-08T11:45:01.193Z,44.09
2023-02-08T11:47:33.420Z,44.02
2023-02-08T11:50:05.833Z,42.50
2023-02-08T11:52:42.921Z,42.45
2023-02-08T11:55:13.609Z,41.26
2023-02-08T11:58:01.615Z,40.68
2023-02-08T12:00:37.417Z,38.56
2023-02-08T12:03:15.178Z,39.51
2023-02-08T12:06:08.133Z,39.24
2023-02-08T12:08:54.793Z,37.84
2023-02-08T12:11:46.666Z,39.07
2023-02-08T12:14:53.096Z,36.96
2023-02-08T12:17:37.330Z,37.86
2023-02-08T12:20:25.987Z,38.62
2023-02-08T12:23:25.295Z,38.46
2023-02-08T12:26:05.630Z,38.66
2023-02-08T12:28:51.514Z,38.39
2023-02-08T12:31:36.030Z,36.69
2023-02-08T12:34:28.749Z,36.31
2023-02-08T12:37:35.161Z,34.73
2023-02-08T12:40:32.392Z,35.01
2023-02-08T12:43:14.964Z,33.38
2023-02-08T12:46:01.959Z,32.91
2023-02-08T12:49:13.088Z,35.35
2023-02-08T12:51:47.459Z,35.13
2023-02-08T12:54:26.985Z,33.48
2023-02-08T12:57:02.405Z,33.82
2023-02-08T12:59:54.402Z,32.76
2023-02-08T13:02:26.415Z,31.76
2023-02-08T13:05:00.564Z,31.76
2023-02-08T13:08:18.210Z,33.55
2023-02-08T13:10:53.671Z,31.24
2023-02-08T13:13:31.516Z,30.62
2023-02-08T13:16:17.126Z,31.04
2023-02-08T13:18:55.973Z,30.74
2023-02-08T13:21:32.598Z,31.48
2023-02-08T13:24:01.315Z,31.25
2023-02-08T13:26:35.485Z,31.04
2023-02-08T13:29:05.142Z,32.23
2023-02-08T13:31:42.185Z,32.98
2023-02-08T13:34:30.707Z,33.23
2023-02-08T13:37:16.597Z,33.81
2023-02-08T13:40:04.402Z,35.04
2023-02-08T13:42:43.359Z,35.83
2023-02-08T13:45:26.612Z,36.53
2023-02-08T13:48:04.646Z,37.46
2023-02-08T13:50:51.018Z,38.57
2023-02-08T13:53:39.690Z,39.92
2023-02-08T13:56:13.736Z,41.01
2023-02-08T13:58:48.366Z,41.86
2023-02-08T14:01:23.331Z,42.66
2023-02-08T14:04:10.086Z,43.20
2023-02-08T14:06:55.979Z,44.43
2023-02-08T14:09:46.879Z,44.98
2023-02-08T14:12:23.988Z,45.23
2023-02-08T14:15:30.359Z,45.33
2023-02-08T14:18:00.991Z,46.57
2023-02-08T14:20:34.061Z,47.07
2023-02-08T14:23:20.928Z,47.76
2023-02-08T14:25:51.987Z,48.55
2023-02-08T14:28:35.986Z,49.84
2023-02-08T14:31:07.937Z,50.49
2023-02-08T14:33:40.814Z,50.60
2023-02-08T14:36:30.785Z,50.55
2023-02-08T14:39:26.415Z,51.21
2023-02-08T14:42:05.766Z,52.47
2023-02-08T14:44:43.648Z,53.28
2023-02-08T14:47:32.208Z,53.53
2023-02-08T14:50:25.027Z,53.45
2023-02-08T14:53:01.584Z,54.71
2023-02-08T14:55:54.759Z,56.13
2023-02-08T14:58:33.232Z,55.47
2023-02-08T15:01:13.978Z,56.25
2023-02-08T15:03:43.835Z,57.05
2023-02-08T15:06:24.094Z,57.69
2023-02-08T15:08:54.477Z,57.78
2023-02-08T15:11:27.048Z,58.00
2023-02-08T15:14:00.953Z,58.87
2023-02-08T15:16:41.199Z,59.50
2023-02-08T15:19:21.396Z,59.52
2023-02-08T15:21:50.038Z,60.08
2023-02-08T15:24:30.056Z,60.71
2023-02-08T15:26:58.658Z,60.56
2023-02-08T15:29:42.757Z,61.45
2023-02-08T15:32:16.906Z,61.96
2023-02-08T15:34:52.569Z,62.21
2023-02-08T15:37:21.965Z,63.16
2023-02-08T15:39:58.394Z,62.15
2023-02-08T15:42:29.941Z,59.64
2023-02-08T15:45:00.881Z,57.54
2023-02-08T15:47:33.709Z,57.58
2023-02-08T15:50:05.666Z,58.59
2023-02-08T15:52:37.093Z,59.52
2023-02-08T15:55:12.797Z,59.29
2023-02-08T15:57:44.427Z,60.09
2023-02-08T16:00:21.289Z,60.73
2023-02-08T16:02:56.304Z,61.61
2023-02-08T16:05:28.625Z,63.61
2023-02-08T16:07:58.080Z,63.69
2023-02-08T16:10:40.846Z,62.15
2023-02-08T16:13:31.957Z,60.65
2023-02-08T16:16:21.441Z,58.75
2023-02-08T16:19:05.633Z,57.48
2023-02-08T16:21:39.809Z,58.58
2023-02-08T16:24:11.126Z,59.68
2023-02-08T16:26:44.708Z,60.26
2023-02-08T16:29:27.265Z,60.98
2023-02-08T16:32:07.922Z,61.76
2023-02-08T16:34:38.968Z,63.37
2023-02-08T16:37:21.041Z,64.19
2023-02-08T16:39:54.244Z,62.61
2023-02-08T16:42:27.077Z,60.96
2023-02-08T16:45:01.406Z,59.06
2023-02-08T16:47:42.123Z,57.53
2023-02-08T16:50:25.424Z,58.23
2023-02-08T16:53:03.157Z,59.23
2023-02-08T16:55:34.143Z,60.73
2023-02-08T16:58:02.680Z,61.56
2023-02-08T17:00:34.643Z,62.70
2023-02-08T17:03:03.277Z,64.19
2023-02-08T17:05:37.933Z,62.91
2023-02-08T17:08:12.950Z,60.85
2023-02-08T17:10:42.521Z,58.81
2023-02-08T17:13:21.221Z,57.40
2023-02-08T17:15:51.357Z,58.30
2023-02-08T17:18:21.452Z,59.41
2023-02-08T17:20:50.819Z,60.41
2023-02-08T17:23:19.274Z,61.24
2023-02-08T17:25:47.802Z,62.21
2023-02-08T17:28:19.426Z,63.82
2023-02-08T17:30:49.409Z,64.05
2023-02-08T17:33:18.764Z,62.43
2023-02-08T17:35:50.514Z,60.78
2023-02-08T17:38:20.597Z,59.24
2023-02-08T17:40:49.110Z,57.83
2023-02-08T17:43:17.925Z,58.70
2023-02-08T17:45:47.064Z,59.93
2023-02-08T17:48:16.275Z,61.10
2023-02-08T17:50:51.115Z,62.30
2023-02-08T17:53:20.205Z,64.29
2023-02-08T17:55:48.652Z,64.32
2023-02-08T17:58:18.390Z,63.09
2023-02-08T18:00:47.027Z,61.72
2023-02-08T18:03:17.436Z,60.39
2023-02-08T18:05:45.850Z,58.84
2023-02-08T18:08:14.506Z,58.14
2023-02-08T18:10:43.345Z,59.44
2023-02-08T18:13:12.004Z,60.76
2023-02-08T18:15:40.535Z,62.11
2023-02-08T18:18:09.259Z,63.97
2023-02-08T18:20:37.696Z,64.54
2023-02-08T18:23:06.213Z,63.24
2023-02-08T18:25:34.653Z,61.75
2023-02-08T18:28:03.149Z,60.57
2023-02-08T18:30:32.567Z,59.51
2023-02-08T18:33:01.058Z,58.18
2023-02-08T18:35:29.495Z,59.12
2023-02-08T18:37:58.008Z,60.52
2023-02-08T18:40:26.572Z,61.77
2023-02-08T18:42:55.234Z,63.47
2023-02-08T18:45:23.708Z,64.78
2023-02-08T18:47:52.253Z,63.64
2023-02-08T18:50:20.667Z,62.09
2023-02-08T18:52:49.095Z,60.98
2023-02-08T18:55:17.572Z,60.18
2023-02-08T18:57:49.065Z,59.09
2023-02-08T19:00:17.652Z,58.35
2023-02-08T19:02:46.814Z,59.52
2023-02-08T19:05:15.659Z,60.59
2023-02-08T19:07:44.156Z,60.94
2023-02-08T19:10:12.605Z,62.17
2023-02-08T19:12:41.867Z,64.17
2023-02-08T19:15:10.434Z,64.24
2023-02-08T19:17:38.864Z,63.25
2023-02-08T19:20:08.290Z,61.39
2023-02-08T19:22:36.726Z,60.81
2023-02-08T19:25:05.609Z,60.09
2023-02-08T19:27:34.267Z,58.36
2023-02-08T19:30:04.995Z,58.65
2023-02-08T19:32:33.708Z,59.86
2023-02-08T19:35:02.287Z,62.01
2023-02-08T19:37:30.767Z,63.65
2023-02-08T19:39:59.239Z,63.85
2023-02-08T19:42:27.736Z,63.04
2023-02-08T19:44:56.719Z,61.68
2023-02-08T19:47:43.429Z,60.82
2023-02-08T19:50:14.648Z,59.86
2023-02-08T19:52:43.737Z,58.32
2023-02-08T19:55:12.294Z,58.98
2023-02-08T19:57:40.969Z,60.27
2023-02-08T20:00:22.612Z,61.62
2023-02-08T20:02:52.214Z,63.99
2023-02-08T20:05:21.032Z,64.66
2023-02-08T20:07:49.549Z,63.64
2023-02-08T20:10:18.052Z,62.44
2023-02-08T20:12:46.461Z,61.29
2023-02-08T20:15:14.917Z,60.25
2023-02-08T20:17:44.862Z,59.26
2023-02-08T20:20:13.387Z,58.48
2023-02-08T20:22:41.823Z,59.54
2023-02-08T20:25:10.252Z,60.93
2023-02-08T20:27:38.952Z,62.05
2023-02-08T20:30:07.816Z,63.86
2023-02-08T20:32:36.439Z,64.09
2023-02-08T20:35:05.061Z,63.24
2023-02-08T20:37:33.982Z,62.27
2023-02-08T20:40:03.937Z,61.21
2023-02-08T20:42:32.360Z,60.38
2023-02-08T20:45:00.982Z,59.55
2023-02-08T20:47:31.882Z,58.20
2023-02-08T20:50:05.029Z,58.99
2023-02-08T20:52:38.784Z,60.31
2023-02-08T20:55:08.557Z,62.00
2023-02-08T20:57:37.073Z,64.28
2023-02-08T21:00:06.324Z,64.49
2023-02-08T21:02:35.009Z,63.50
2023-02-08T21:05:04.107Z,62.35
2023-02-08T21:07:33.045Z,61.33
2023-02-08T21:10:04.189Z,60.29
2023-02-08T21:12:33.477Z,59.38
2023-02-08T21:15:02.151Z,58.15
2023-02-08T21:17:30.866Z,58.60
2023-02-08T21:19:59.482Z,59.89
2023-02-08T21:22:27.855Z,61.50
2023-02-08T21:24:56.333Z,62.78
2023-02-08T21:27:24.874Z,65.06
2023-02-08T21:29:53.378Z,65.02
2023-02-08T21:32:21.897Z,63.87
2023-02-08T21:34:52.496Z,62.81
2023-02-08T21:37:20.944Z,61.75
2023-02-08T21:39:49.554Z,60.65
2023-02-08T21:42:18.003Z,59.70
2023-02-08T21:44:46.442Z,58.42
2023-02-08T21:47:14.842Z,58.98
2023-02-08T21:50:01.990Z,60.44
2023-02-08T21:52:49.153Z,61.81
2023-02-08T21:55:17.773Z,63.70
2023-02-08T21:57:46.334Z,65.16
2023-02-08T22:00:15.218Z,64.47
2023-02-08T22:02:43.998Z,63.27
2023-02-08T22:05:13.670Z,62.17
2023-02-08T22:07:56.929Z,61.26
2023-02-08T22:10:30.963Z,60.51
2023-02-08T22:12:59.678Z,59.59
2023-02-08T22:15:30.277Z,58.29
2023-02-08T22:18:01.893Z,59.14
2023-02-08T22:20:31.041Z,60.81
2023-02-08T22:22:59.618Z,61.95
2023-02-08T22:25:28.108Z,63.56
2023-02-08T22:27:56.539Z,64.72
2023-02-08T22:30:25.713Z,63.54
2023-02-08T22:32:54.428Z,62.25
2023-02-08T22:35:22.974Z,61.45
2023-02-08T22:37:51.586Z,60.41
2023-02-08T22:40:20.509Z,58.85
2023-02-08T22:42:49.000Z,59.04
2023-02-08T22:45:17.586Z,60.02
2023-02-08T22:47:46.291Z,61.70
2023-02-08T22:50:15.553Z,63.39
2023-02-08T22:52:43.998Z,64.63
2023-02-08T22:55:12.775Z,64.28
2023-02-08T22:57:43.692Z,63.17
2023-02-08T23:00:15.105Z,62.08
2023-02-08T23:02:43.873Z,61.11
2023-02-08T23:05:13.201Z,60.31
2023-02-08T23:07:41.883Z,59.38
2023-02-08T23:10:11.998Z,58.18
2023-02-08T23:12:40.561Z,59.14
2023-02-08T23:15:11.247Z,60.56
2023-02-08T23:17:49.011Z,61.84
2023-02-08T23:20:17.628Z,63.62
2023-02-08T23:22:46.133Z,64.68
2023-02-08T23:25:15.708Z,63.52
2023-02-08T23:27:44.244Z,62.05
2023-02-08T23:30:13.072Z,60.76
2023-02-08T23:32:42.260Z,59.71
2023-02-08T23:35:11.116Z,58.31
2023-02-08T23:37:39.691Z,58.88
2023-02-08T23:40:11.577Z,60.27
2023-02-08T23:42:40.052Z,61.48
2023-02-08T23:45:08.861Z,63.08
2023-02-08T23:47:38.050Z,64.72
2023-02-08T23:50:08.138Z,64.12
2023-02-08T23:52:37.467Z,62.84
2023-02-08T23:55:06.591Z,61.50
2023-02-08T23:57:37.826Z,60.37
